Time;durP1;ratioP1;P1;durP2;ratioP2;P2;SDS_P1;SDS_P2;PMS_P1;PMS_P2;Temp;Humidity;BMP_temperature;BMP_pressure;BME280_temperature;BME280_humidity;BME280_pressure;Samples;Min_cycle;Max_cycle;Signal;HPM_P1;HPM_P2
2023/04/23 00:02:12;;;;;;;23.47;16.97;;;12.20;11.10;;;;;;5032321;28;20457;-85
2023/04/23 00:04:39;;;;;;;27.90;18.23;;;12.20;48.50;;;;;;5033111;28;20978;-86
2023/04/23 00:07:05;;;;;;;20.60;16.60;;;12.20;12.90;;;;;;5034624;28;20426;-86
2023/04/23 00:09:31;;;;;;;19.70;16.50;;;12.20;1.00;;;;;;5032383;28;20487;-86
2023/04/23 00:11:58;;;;;;;22.10;16.90;;;12.20;1.00;;;;;;5031230;28;20436;-86
2023/04/23 00:14:24;;;;;;;23.40;17.00;;;12.10;1.00;;;;;;5022199;28;20489;-86
2023/04/23 00:16:52;;;;;;;21.90;17.63;;;12.10;1.00;;;;;;5026753;28;20468;-86
2023/04/23 00:19:17;;;;;;;23.40;16.97;;;12.10;1.00;;;;;;5030522;28;20435;-86
2023/04/23 00:21:43;;;;;;;19.93;16.50;;;12.00;1.00;;;;;;5024691;28;20433;-85
2023/04/23 00:24:09;;;;;;;21.03;17.50;;;12.00;70.70;;;;;;5029370;28;20309;-86
2023/04/23 00:26:34;;;;;;;20.90;16.07;;;11.90;99.90;;;;;;5024647;28;20535;-86
2023/04/23 00:29:00;;;;;;;21.30;16.50;;;11.90;99.90;;;;;;5030274;28;20216;-86
2023/04/23 00:31:26;;;;;;;23.90;18.37;;;11.90;99.90;;;;;;5033217;28;20208;-86
2023/04/23 00:33:52;;;;;;;19.13;16.90;;;11.90;99.90;;;;;;5034174;28;20213;-86
2023/04/23 00:36:18;;;;;;;22.20;16.33;;;11.90;99.90;;;;;;5015428;28;20193;-86
2023/04/23 00:38:43;;;;;;;23.07;17.77;;;11.90;99.90;;;;;;5008029;28;20433;-86
2023/04/23 00:41:10;;;;;;;22.20;17.57;;;11.80;99.90;;;;;;5032502;28;20197;-86
2023/04/23 00:43:36;;;;;;;21.77;18.20;;;11.80;99.90;;;;;;5033096;28;20225;-86
2023/04/23 00:46:02;;;;;;;23.17;17.70;;;11.80;99.90;;;;;;5011117;28;20459;-86
2023/04/23 00:48:28;;;;;;;23.93;17.80;;;11.70;99.90;;;;;;5034875;28;20475;-86
2023/04/23 00:51:04;;;;;;;23.33;18.97;;;11.70;1.00;;;;;;5033733;28;20656;-86
2023/04/23 00:53:30;;;;;;;29.03;19.73;;;11.70;1.00;;;;;;5005129;28;20456;-86
2023/04/23 00:55:56;;;;;;;23.90;19.87;;;11.60;1.00;;;;;;5026111;28;20459;-86
2023/04/23 00:58:22;;;;;;;23.13;20.00;;;11.60;1.00;;;;;;5028584;28;20194;-86
2023/04/23 01:00:48;;;;;;;25.90;19.23;;;11.60;1.00;;;;;;5026963;28;20444;-86
2023/04/23 01:03:17;;;;;;;24.97;19.70;;;11.60;2.40;;;;;;5015082;28;20237;-86
2023/04/23 01:05:42;;;;;;;22.97;17.37;;;11.60;2.50;;;;;;5024879;28;20445;-85
2023/04/23 01:08:13;;;;;;;24.43;18.20;;;11.60;1.00;;;;;;5051735;28;20440;-86
2023/04/23 01:10:40;;;;;;;24.17;17.60;;;11.60;1.00;;;;;;5045254;28;20178;-85
2023/04/23 01:13:05;;;;;;;27.33;20.37;;;11.60;1.00;;;;;;5032820;28;20471;-86
2023/04/23 01:15:31;;;;;;;25.27;19.37;;;11.60;1.00;;;;;;5031401;28;20433;-86
2023/04/23 01:17:57;;;;;;;30.00;20.20;;;11.50;1.00;;;;;;5028834;28;20226;-85
2023/04/23 01:20:23;;;;;;;28.73;19.10;;;11.50;1.00;;;;;;5034388;28;20186;-86
2023/04/23 01:22:49;;;;;;;26.43;20.87;;;11.40;1.00;;;;;;5006271;28;20474;-86
2023/04/23 01:25:15;;;;;;;26.77;21.20;;;11.40;1.00;;;;;;5016387;28;20535;-86
2023/04/23 01:27:41;;;;;;;27.73;21.60;;;11.30;22.20;;;;;;5028341;28;20433;-86
2023/04/23 01:30:07;;;;;;;25.73;21.40;;;11.30;99.90;;;;;;5033366;28;20953;-86
2023/04/23 01:32:34;;;;;;;26.70;20.63;;;11.30;99.90;;;;;;5033143;28;20186;-86
2023/04/23 01:35:00;;;;;;;28.40;21.70;;;11.20;99.90;;;;;;5036633;28;20816;-86
2023/04/23 01:37:27;;;;;;;27.03;20.60;;;11.20;99.90;;;;;;5040772;28;20449;-86
2023/04/23 01:39:52;;;;;;;29.33;20.20;;;11.10;99.90;;;;;;5033889;28;20440;-86
2023/04/23 01:42:18;;;;;;;29.53;20.30;;;11.10;99.90;;;;;;5020569;28;20499;-86
2023/04/23 01:44:44;;;;;;;26.10;20.87;;;11.10;99.90;;;;;;5014212;28;20297;-86
2023/04/23 01:47:12;;;;;;;30.57;22.43;;;11.00;99.90;;;;;;5036088;28;20453;-85
2023/04/23 01:49:38;;;;;;;26.90;21.20;;;11.00;1.00;;;;;;5042157;28;20817;-86
2023/04/23 01:52:03;;;;;;;28.13;22.20;;;11.00;1.00;;;;;;5036823;28;20441;-85
2023/04/23 01:54:32;;;;;;;28.93;21.83;;;11.00;1.00;;;;;;5023468;28;20214;-86
2023/04/23 01:56:58;;;;;;;28.80;21.93;;;11.00;1.00;;;;;;5021579;28;20280;-85
2023/04/23 01:59:23;;;;;;;28.20;20.70;;;11.00;1.00;;;;;;5024583;28;20452;-86
2023/04/23 02:01:49;;;;;;;31.27;22.60;;;11.00;1.00;;;;;;5015231;28;20618;-85
2023/04/23 02:04:15;;;;;;;27.03;21.43;;;11.10;1.00;;;;;;5021027;28;20207;-85
2023/04/23 02:06:44;;;;;;;26.73;20.73;;;11.10;1.00;;;;;;5039466;28;20281;-86
2023/04/23 02:09:10;;;;;;;27.70;21.47;;;11.10;1.00;;;;;;5040019;28;21008;-86
2023/04/23 02:11:36;;;;;;;26.07;19.70;;;11.20;1.00;;;;;;5039796;28;20448;-86
2023/04/23 02:14:04;;;;;;;27.67;21.37;;;11.20;1.00;;;;;;5022909;28;20465;-85
2023/04/23 02:16:30;;;;;;;26.53;20.27;;;11.30;1.00;;;;;;5022016;28;20198;-85
2023/04/23 02:18:56;;;;;;;25.57;20.60;;;11.30;1.00;;;;;;5020244;28;21104;-85
2023/04/23 02:21:23;;;;;;;28.83;21.13;;;11.40;1.00;;;;;;5039092;28;20186;-85
2023/04/23 02:23:51;;;;;;;25.90;20.87;;;11.40;1.00;;;;;;5034023;28;20213;-86
2023/04/23 02:26:17;;;;;;;26.50;20.27;;;11.50;1.00;;;;;;5015519;28;20907;-86
2023/04/23 02:28:43;;;;;;;26.33;19.57;;;11.50;1.00;;;;;;5019737;28;20433;-85
2023/04/23 02:31:09;;;;;;;23.70;18.67;;;11.50;1.00;;;;;;5036766;28;20259;-85
2023/04/23 02:33:35;;;;;;;25.20;19.37;;;11.50;1.00;;;;;;5015713;28;20468;-85
2023/04/23 02:36:01;;;;;;;22.87;19.40;;;11.50;1.00;;;;;;5014872;28;20189;-85
2023/04/23 02:38:26;;;;;;;24.73;19.50;;;11.50;1.00;;;;;;5033257;28;20193;-86
2023/04/23 02:40:52;;;;;;;23.97;19.40;;;11.50;1.00;;;;;;5021973;28;20220;-86
2023/04/23 02:43:17;;;;;;;24.13;17.83;;;11.40;1.00;;;;;;5025946;28;20300;-85
2023/04/23 02:45:43;;;;;;;22.40;18.77;;;11.40;1.00;;;;;;5022319;28;20183;-86
2023/04/23 02:48:12;;;;;;;24.23;17.77;;;11.30;1.00;;;;;;5037617;28;20190;-85
2023/04/23 02:50:38;;;;;;;21.07;18.30;;;11.30;1.00;;;;;;5022256;28;20978;-86
2023/04/23 02:53:07;;;;;;;22.17;17.43;;;11.30;1.00;;;;;;5038572;28;20460;-86
2023/04/23 02:55:32;;;;;;;21.67;16.60;;;11.20;1.00;;;;;;5016856;28;20206;-86
2023/04/23 02:57:58;;;;;;;22.00;16.63;;;11.20;1.00;;;;;;5033247;28;20429;-86
2023/04/23 03:00:25;;;;;;;21.60;16.90;;;11.20;1.00;;;;;;5020606;28;20201;-86
2023/04/23 03:02:51;;;;;;;21.43;17.50;;;11.20;1.00;;;;;;5015360;28;20476;-86
2023/04/23 03:05:16;;;;;;;18.47;15.50;;;11.10;1.00;;;;;;5014580;28;20953;-86
2023/04/23 03:07:42;;;;;;;20.67;15.60;;;11.10;1.00;;;;;;5011437;28;20217;-85
2023/04/23 03:10:08;;;;;;;19.67;15.77;;;11.10;99.90;;;;;;5031900;28;20669;-86
2023/04/23 03:12:34;;;;;;;17.67;15.23;;;11.10;99.90;;;;;;5037668;28;20193;-86
2023/04/23 03:14:59;;;;;;;21.00;15.13;;;11.10;99.90;;;;;;5025761;28;20205;-86
2023/04/23 03:17:25;;;;;;;21.97;14.97;;;11.10;99.90;;;;;;5037597;28;20448;-86
2023/04/23 03:19:50;;;;;;;18.77;15.00;;;11.10;99.90;;;;;;5038958;28;20237;-85
2023/04/23 03:22:16;;;;;;;20.93;15.73;;;11.10;99.90;;;;;;5014179;28;20245;-86
2023/04/23 03:24:42;;;;;;;17.33;13.87;;;11.20;99.90;;;;;;5038854;28;20209;-85
2023/04/23 03:27:07;;;;;;;18.57;14.73;;;11.20;99.90;;;;;;5036232;28;20194;-85
2023/04/23 03:29:33;;;;;;;18.20;14.30;;;11.20;99.90;;;;;;5036216;28;20236;-86
2023/04/23 03:31:58;;;;;;;18.47;14.40;;;11.30;18.80;;;;;;5038282;28;20275;-85
2023/04/23 03:34:24;;;;;;;16.10;12.93;;;11.30;1.00;;;;;;5038131;28;21006;-85
2023/04/23 03:36:50;;;;;;;18.80;13.00;;;11.30;1.00;;;;;;5038988;28;20185;-86
2023/04/23 03:39:21;;;;;;;21.63;14.13;;;11.30;1.00;;;;;;5034984;28;20190;-85
2023/04/23 03:41:47;;;;;;;16.23;14.30;;;11.40;1.00;;;;;;5034153;28;20424;-85
2023/04/23 03:44:12;;;;;;;14.53;12.67;;;11.40;99.90;;;;;;5037725;28;20547;-86
2023/04/23 03:46:38;;;;;;;16.50;13.13;;;11.40;99.90;;;;;;5037333;28;20229;-86
2023/04/23 03:49:03;;;;;;;13.47;11.80;;;11.40;99.90;;;;;;5037697;28;20564;-86
2023/04/23 03:51:30;;;;;;;17.53;12.30;;;11.50;99.90;;;;;;5016444;28;20189;-86
2023/04/23 03:53:55;;;;;;;17.00;11.90;;;11.50;99.90;;;;;;5016777;28;20217;-85
2023/04/23 03:56:21;;;;;;;14.27;11.60;;;11.50;25.80;;;;;;5039221;28;20444;-85
2023/04/23 03:58:47;;;;;;;13.13;11.03;;;11.50;1.00;;;;;;5020997;28;20389;-85
2023/04/23 04:01:13;;;;;;;14.40;11.60;;;11.50;1.00;;;;;;5020627;28;20190;-85
2023/04/23 04:03:38;;;;;;;13.97;11.97;;;11.50;1.00;;;;;;5018309;28;20217;-86
2023/04/23 04:06:21;;;;;;;14.10;12.60;;;11.50;1.00;;;;;;5026149;28;20190;-86
2023/04/23 04:08:47;;;;;;;16.50;13.33;;;11.60;1.00;;;;;;5014604;28;20194;-86
2023/04/23 04:11:12;;;;;;;19.10;11.93;;;11.60;1.00;;;;;;5014371;28;20434;-85
2023/04/23 04:13:38;;;;;;;15.80;11.90;;;11.50;1.00;;;;;;5036508;28;20214;-86
2023/04/23 04:16:03;;;;;;;17.37;11.90;;;11.60;1.00;;;;;;5038373;28;20182;-86
2023/04/23 04:18:29;;;;;;;18.07;13.00;;;11.60;1.00;;;;;;5019311;28;20214;-86
2023/04/23 04:20:54;;;;;;;13.50;11.67;;;11.60;1.00;;;;;;5023437;28;20204;-86
2023/04/23 04:23:20;;;;;;;17.00;13.10;;;11.60;1.00;;;;;;5013740;28;20218;-86
2023/04/23 04:25:46;;;;;;;14.10;11.73;;;11.60;1.00;;;;;;5032110;28;20182;-86
2023/04/23 04:28:11;;;;;;;13.77;12.23;;;11.60;1.00;;;;;;5020827;28;20218;-85
2023/04/23 04:30:38;;;;;;;16.50;11.57;;;11.60;1.00;;;;;;5020268;28;20191;-86
2023/04/23 04:33:03;;;;;;;18.60;11.07;;;11.60;1.00;;;;;;5023910;28;20210;-86
2023/04/23 04:35:29;;;;;;;13.43;11.53;;;11.60;1.00;;;;;;5040088;28;20475;-86
2023/04/23 04:37:55;;;;;;;18.27;11.10;;;11.60;1.00;;;;;;5022868;28;20255;-86
2023/04/23 04:40:21;;;;;;;12.17;10.43;;;11.60;1.00;;;;;;5024553;28;20446;-85
2023/04/23 04:42:46;;;;;;;12.10;10.73;;;11.60;1.00;;;;;;5029970;28;20214;-85
2023/04/23 04:45:12;;;;;;;11.17;9.87;;;11.70;9.20;;;;;;5023781;28;20191;-85
2023/04/23 04:47:40;;;;;;;13.27;11.00;;;11.70;22.00;;;;;;5038331;28;20202;-86
2023/04/23 04:50:06;;;;;;;13.57;11.90;;;11.70;40.00;;;;;;5034263;28;20186;-87
2023/04/23 04:52:32;;;;;;;13.73;10.63;;;11.70;70.00;;;;;;5018478;28;20420;-85
2023/04/23 04:54:57;;;;;;;13.07;11.37;;;11.70;99.90;;;;;;5015813;28;20446;-85
2023/04/23 04:57:23;;;;;;;15.00;10.77;;;11.70;99.90;;;;;;5022731;28;20194;-86
2023/04/23 04:59:49;;;;;;;11.77;10.57;;;11.80;99.90;;;;;;5039443;28;20198;-85
2023/04/23 05:02:15;;;;;;;12.33;9.90;;;11.80;99.90;;;;;;5024991;28;20255;-86
2023/04/23 05:04:41;;;;;;;12.90;10.90;;;11.80;99.90;;;;;;5020431;28;20886;-86
2023/04/23 05:07:06;;;;;;;13.17;10.73;;;11.90;99.90;;;;;;5022139;28;20425;-85
2023/04/23 05:09:32;;;;;;;10.93;9.73;;;11.90;99.90;;;;;;5020492;28;20248;-86
2023/04/23 05:11:58;;;;;;;11.37;10.20;;;12.00;99.90;;;;;;5039906;28;20193;-86
2023/04/23 05:14:25;;;;;;;12.37;10.73;;;12.00;99.70;;;;;;5020723;28;20198;-86
2023/04/23 05:16:51;;;;;;;13.70;10.60;;;12.10;99.90;;;;;;5027248;28;20417;-86
2023/04/23 05:19:16;;;;;;;15.03;10.57;;;12.10;99.90;;;;;;5018113;28;20993;-86
2023/04/23 05:21:42;;;;;;;11.33;10.03;;;12.20;73.60;;;;;;5038309;28;20200;-86
2023/04/23 05:24:07;;;;;;;12.57;9.10;;;12.30;19.90;;;;;;5022302;28;20218;-85
2023/04/23 05:26:33;;;;;;;10.53;9.37;;;12.30;1.00;;;;;;5038826;28;20189;-86
2023/04/23 05:28:59;;;;;;;10.33;8.93;;;12.40;1.00;;;;;;5040027;28;20182;-86
2023/04/23 05:31:24;;;;;;;13.07;9.93;;;12.50;1.00;;;;;;5039207;28;20232;-85
2023/04/23 05:33:50;;;;;;;11.43;9.43;;;12.60;1.00;;;;;;5020369;28;20207;-86
2023/04/23 05:36:16;;;;;;;9.17;8.23;;;12.60;99.90;;;;;;5020080;28;20193;-85
2023/04/23 05:38:44;;;;;;;12.23;8.00;;;12.70;99.90;;;;;;5040037;28;20340;-86
2023/04/23 05:41:10;;;;;;;10.30;8.90;;;12.80;99.90;;;;;;5041420;28;20429;-86
2023/04/23 05:43:36;;;;;;;8.90;7.47;;;12.90;99.90;;;;;;5040498;28;20476;-87
2023/04/23 05:46:03;;;;;;;11.77;8.13;;;13.00;2.70;;;;;;5032006;28;20272;-86
2023/04/23 05:48:29;;;;;;;7.80;6.87;;;13.10;1.00;;;;;;5038443;28;20182;-86
2023/04/23 05:50:54;;;;;;;8.20;7.40;;;13.20;99.90;;;;;;5021682;28;20425;-85
2023/04/23 05:56:08;;;;;;;8.00;7.20;;;13.60;1.00;;;;;;5032936;28;20211;-85
2023/04/23 05:58:34;;;;;;;9.70;8.50;;;13.80;99.90;;;;;;5019038;28;20463;-86
2023/04/23 06:01:02;;;;;;;8.00;7.10;;;14.00;1.00;;;;;;5015210;28;20179;-86
2023/04/23 06:03:27;;;;;;;7.40;6.70;;;14.30;99.90;;;;;;5011400;28;20235;-86
2023/04/23 06:05:56;;;;;;;8.00;7.17;;;14.40;92.30;;;;;;5031268;28;20808;-86
2023/04/23 06:08:49;;;;;;;8.33;7.50;;;14.50;1.00;;;;;;5025902;28;20678;-87
2023/04/23 06:11:21;;;;;;;9.50;7.00;;;14.70;1.00;;;;;;5014688;28;20447;-86
2023/04/23 06:13:49;;;;;;;8.63;6.87;;;14.80;99.90;;;;;;5018175;28;20515;-86
2023/04/23 06:16:15;;;;;;;8.97;7.00;;;14.80;99.90;;;;;;5017057;28;20833;-87
2023/04/23 06:18:43;;;;;;;8.77;7.50;;;14.90;99.90;;;;;;5008595;28;20448;-85
2023/04/23 06:21:09;;;;;;;8.77;6.87;;;15.00;31.80;;;;;;5027121;28;20487;-86
2023/04/23 06:23:42;;;;;;;8.03;6.20;;;15.10;1.00;;;;;;5031966;28;20482;-85
2023/04/23 06:26:08;;;;;;;8.00;7.20;;;15.20;1.00;;;;;;5033377;28;20213;-86
2023/04/23 06:28:33;;;;;;;10.67;7.80;;;15.20;1.00;;;;;;5032871;28;20413;-86
2023/04/23 06:31:02;;;;;;;9.00;7.50;;;15.20;1.00;;;;;;5035161;28;20217;-88
2023/04/23 06:33:28;;;;;;;11.43;7.13;;;15.20;1.00;;;;;;5018455;28;20211;-86
2023/04/23 06:35:53;;;;;;;7.23;6.53;;;15.30;1.00;;;;;;5035170;28;20443;-86
2023/04/23 06:38:21;;;;;;;9.43;6.80;;;15.50;99.90;;;;;;5014400;28;20191;-86
2023/04/23 06:40:47;;;;;;;8.97;6.70;;;15.70;99.90;;;;;;5018123;28;20252;-86
2023/04/23 06:43:13;;;;;;;7.60;6.63;;;16.10;99.90;;;;;;5030821;28;20484;-86
2023/04/23 06:45:39;;;;;;;7.73;6.40;;;16.50;68.40;;;;;;5015036;28;20190;-86
2023/04/23 06:48:05;;;;;;;7.60;6.70;;;17.10;1.00;;;;;;5016005;28;21005;-87
2023/04/23 06:50:30;;;;;;;8.00;6.10;;;18.40;1.00;;;;;;5032928;28;20816;-87
2023/04/23 06:52:56;;;;;;;6.40;5.20;;;22.80;99.90;;;;;;5022252;28;20229;-87
2023/04/23 06:55:25;;;;;;;6.27;4.73;;;25.40;99.90;;;;;;5024567;28;20197;-87
2023/04/23 06:57:51;;;;;;;4.83;4.43;;;25.30;99.90;;;;;;5029027;28;20178;-85
2023/04/23 07:00:17;;;;;;;5.80;4.70;;;26.30;99.90;;;;;;5033478;28;20484;-87
2023/04/23 07:02:43;;;;;;;4.83;4.43;;;31.90;99.90;;;;;;5033283;28;20993;-87
2023/04/23 07:05:09;;;;;;;4.63;4.23;;;33.50;99.90;;;;;;5034221;28;20435;-88
2023/04/23 07:07:36;;;;;;;4.57;4.17;;;33.90;99.90;;;;;;5033954;28;20201;-87
2023/04/23 07:10:02;;;;;;;3.60;3.30;;;37.10;99.90;;;;;;5030028;28;20204;-87
2023/04/23 07:12:28;;;;;;;4.73;3.70;;;40.20;99.90;;;;;;5010329;28;20422;-86
2023/04/23 07:14:56;;;;;;;16.53;3.27;;;42.70;99.90;;;;;;5028888;28;20508;-87
2023/04/23 07:17:23;;;;;;;5.07;2.87;;;44.70;99.90;;;;;;5022846;28;20284;-88
2023/04/23 07:19:48;;;;;;;4.80;3.40;;;46.40;99.90;;;;;;5031505;28;20523;-86
2023/04/23 07:22:14;;;;;;;3.27;2.53;;;47.40;99.90;;;;;;5029491;28;20209;-86
2023/04/23 07:24:40;;;;;;;3.13;2.83;;;47.00;99.90;;;;;;5013200;28;20205;-87
2023/04/23 07:27:06;;;;;;;4.20;2.97;;;47.80;99.90;;;;;;5025530;28;20181;-87
2023/04/23 07:29:32;;;;;;;6.03;3.33;;;48.60;99.90;;;;;;5031060;28;20651;-87
2023/04/23 07:31:57;;;;;;;4.27;2.80;;;49.20;99.90;;;;;;5030713;28;20437;-87
2023/04/23 07:34:23;;;;;;;3.80;3.13;;;49.70;99.90;;;;;;5008533;28;20629;-89
2023/04/23 07:36:49;;;;;;;3.27;2.77;;;50.00;99.90;;;;;;5016059;28;20655;-87
2023/04/23 07:39:14;;;;;;;3.63;2.80;;;50.20;99.90;;;;;;5026547;28;20201;-86
2023/04/23 07:41:40;;;;;;;3.70;2.63;;;50.30;99.90;;;;;;5024911;28;20221;-87
2023/04/23 07:44:06;;;;;;;5.03;2.70;;;50.40;99.90;;;;;;5028340;28;20213;-86
2023/04/23 07:46:31;;;;;;;2.80;2.40;;;50.50;99.90;;;;;;5021293;28;20569;-87
2023/04/23 07:48:57;;;;;;;3.33;2.63;;;50.50;99.90;;;;;;5009203;28;20207;-85
2023/04/23 07:51:25;;;;;;;3.40;2.33;;;50.50;99.90;;;;;;5018349;28;20186;-87
2023/04/23 07:53:55;;;;;;;6.20;2.40;;;50.90;99.90;;;;;;5024696;28;20841;-87
2023/04/23 07:56:21;;;;;;;5.07;2.33;;;51.00;99.90;;;;;;5020729;28;20491;-87
2023/04/23 07:58:47;;;;;;;5.23;2.93;;;51.10;99.90;;;;;;5022732;28;20463;-87
2023/04/23 08:01:13;;;;;;;4.73;2.30;;;51.10;99.90;;;;;;5017215;28;20429;-87
2023/04/23 08:03:38;;;;;;;4.33;2.00;;;51.30;99.90;;;;;;5023234;28;20200;-87
2023/04/23 08:06:04;;;;;;;4.33;2.43;;;51.00;99.90;;;;;;5026555;28;20200;-86
2023/04/23 08:08:29;;;;;;;6.63;2.33;;;48.20;97.90;;;;;;5018474;28;20192;-87
2023/04/23 08:10:55;;;;;;;5.30;2.37;;;47.20;96.60;;;;;;5021492;28;20197;-87
2023/04/23 08:13:21;;;;;;;3.67;1.90;;;48.10;97.40;;;;;;5008554;28;20708;-87
2023/04/23 08:15:47;;;;;;;5.17;1.93;;;48.80;97.90;;;;;;5018074;28;20218;-86
2023/04/23 08:18:13;;;;;;;5.17;2.60;;;48.50;96.80;;;;;;5020041;28;20182;-87
2023/04/23 08:20:39;;;;;;;5.50;2.10;;;48.40;95.80;;;;;;5012250;28;20452;-87
2023/04/23 08:23:05;;;;;;;3.43;1.97;;;48.50;95.40;;;;;;5001792;28;20465;-86
2023/04/23 08:25:31;;;;;;;4.80;2.30;;;47.90;94.00;;;;;;5022343;28;20190;-87
2023/04/23 08:27:57;;;;;;;3.53;2.00;;;47.50;93.00;;;;;;5022182;28;20186;-87
2023/04/23 08:30:22;;;;;;;3.47;1.83;;;47.20;92.40;;;;;;5020917;28;20507;-87
2023/04/23 08:32:50;;;;;;;4.00;2.27;;;47.40;92.20;;;;;;5024754;28;20213;-87
2023/04/23 08:35:15;;;;;;;2.93;1.50;;;47.90;92.70;;;;;;5025501;28;20723;-87
2023/04/23 08:37:41;;;;;;;4.20;2.63;;;47.10;90.60;;;;;;5022450;28;20511;-86
2023/04/23 08:40:07;;;;;;;3.23;1.73;;;47.10;90.40;;;;;;5016481;28;20206;-87
2023/04/23 08:42:37;;;;;;;3.67;2.00;;;46.90;89.20;;;;;;5016391;28;20186;-87
2023/04/23 08:45:03;;;;;;;4.27;1.83;;;47.10;90.00;;;;;;5005199;28;20552;-87
2023/04/23 08:47:30;;;;;;;2.47;1.20;;;47.80;90.80;;;;;;5021912;28;20444;-87
2023/04/23 08:49:57;;;;;;;4.40;2.03;;;48.10;91.00;;;;;;5000759;28;20845;-87
2023/04/23 08:52:25;;;;;;;3.97;1.87;;;48.10;90.40;;;;;;5009333;28;20468;-87
2023/04/23 08:54:59;;;;;;;2.87;1.60;;;48.40;90.00;;;;;;5016510;28;20471;-86
2023/04/23 08:57:25;;;;;;;2.93;1.53;;;48.30;88.90;;;;;;5029676;28;20455;-86
2023/04/23 08:59:51;;;;;;;4.20;1.77;;;48.00;86.70;;;;;;4998809;28;20437;-86
2023/04/23 09:02:17;;;;;;;3.57;1.57;;;47.10;82.70;;;;;;5027699;28;20673;-87
2023/04/23 09:04:45;;;;;;;3.00;1.27;;;45.00;75.70;;;;;;5026837;28;20220;-87
2023/04/23 09:07:11;;;;;;;3.30;1.73;;;43.30;71.40;;;;;;5033270;28;20182;-87
2023/04/23 09:09:38;;;;;;;3.70;1.57;;;41.70;67.10;;;;;;5032719;28;20437;-86
2023/04/23 09:12:05;;;;;;;5.37;1.57;;;41.70;69.40;;;;;;5026669;28;20499;-87
2023/04/23 09:14:31;;;;;;;2.90;1.57;;;42.00;71.10;;;;;;5029045;28;20462;-87
2023/04/23 09:16:57;;;;;;;2.73;1.27;;;40.70;69.30;;;;;;5030104;28;20437;-87
2023/04/23 09:19:26;;;;;;;4.13;1.80;;;40.40;67.00;;;;;;5032746;28;20183;-86
2023/04/23 09:21:52;;;;;;;3.43;1.70;;;39.70;64.70;;;;;;5009329;28;20652;-86
2023/04/23 09:24:20;;;;;;;4.23;1.37;;;38.80;62.60;;;;;;5032128;28;20503;-87
2023/04/23 09:26:50;;;;;;;3.80;1.80;;;37.20;58.60;;;;;;5025856;28;20463;-87
2023/04/23 09:29:22;;;;;;;3.80;1.40;;;37.40;61.50;;;;;;5026020;28;21567;-86
2023/04/23 09:31:53;;;;;;;5.30;1.50;;;36.60;59.90;;;;;;5025446;28;20438;-86
2023/04/23 09:34:20;;;;;;;3.30;1.50;;;37.10;63.00;;;;;;5026138;28;20471;-86
2023/04/23 09:36:49;;;;;;;3.50;1.47;;;36.60;62.30;;;;;;5005742;28;20448;-86
2023/04/23 09:39:20;;;;;;;2.90;1.43;;;37.10;64.80;;;;;;5021623;28;20437;-87
2023/04/23 09:41:46;;;;;;;3.70;1.20;;;38.00;71.10;;;;;;5027096;28;20512;-86
2023/04/23 09:44:21;;;;;;;2.50;1.40;;;37.90;76.40;;;;;;5013917;28;20470;-87
2023/04/23 09:46:47;;;;;;;3.97;1.70;;;37.40;67.70;;;;;;5021359;28;20182;-86
2023/04/23 09:49:16;;;;;;;5.43;1.37;;;36.60;65.80;;;;;;5007433;28;20440;-86
2023/04/23 09:51:47;;;;;;;2.40;1.00;;;35.70;62.70;;;;;;5006306;28;20441;-86
2023/04/23 09:54:17;;;;;;;5.70;1.40;;;34.80;60.00;;;;;;5000358;28;20464;-86
2023/04/23 09:56:47;;;;;;;3.27;1.17;;;34.20;59.20;;;;;;5006761;28;20464;-86
2023/04/23 09:59:20;;;;;;;2.23;1.23;;;33.80;60.50;;;;;;5025146;28;20723;-86
2023/04/23 10:01:46;;;;;;;3.13;1.23;;;34.10;63.20;;;;;;5022572;28;21113;-85
2023/04/23 10:04:16;;;;;;;3.97;1.80;;;34.80;67.50;;;;;;5027781;28;20457;-86
2023/04/23 10:06:42;;;;;;;4.07;1.20;;;35.70;71.60;;;;;;5016983;28;20186;-86
2023/04/23 10:09:08;;;;;;;4.27;1.30;;;36.20;74.80;;;;;;5024139;28;20436;-86
2023/04/23 10:11:33;;;;;;;2.50;1.40;;;36.30;76.00;;;;;;5026766;28;20265;-86
2023/04/23 10:13:59;;;;;;;3.80;1.33;;;35.90;75.40;;;;;;5022986;28;20249;-85
2023/04/23 10:16:26;;;;;;;3.20;1.87;;;34.80;70.00;;;;;;4996012;28;20189;-86
2023/04/23 10:18:54;;;;;;;13.37;1.70;;;33.50;65.60;;;;;;5023076;28;21211;-85
2023/04/23 10:21:21;;;;;;;3.83;1.60;;;33.00;63.90;;;;;;5026743;28;20515;-87
2023/04/23 10:23:50;;;;;;;4.00;1.20;;;33.30;68.60;;;;;;5023566;28;20469;-86
2023/04/23 10:26:16;;;;;;;3.73;1.47;;;33.70;71.20;;;;;;5027794;28;20433;-87
2023/04/23 10:28:47;;;;;;;4.00;1.40;;;34.60;75.30;;;;;;5023489;28;20448;-85
2023/04/23 10:31:13;;;;;;;4.37;1.90;;;35.40;79.60;;;;;;5019854;28;20445;-86
2023/04/23 10:33:40;;;;;;;2.60;1.20;;;34.80;76.60;;;;;;5024050;28;20484;-86
2023/04/23 10:36:06;;;;;;;6.20;1.57;;;33.60;72.20;;;;;;5028981;28;20436;-86
2023/04/23 10:38:33;;;;;;;4.73;1.50;;;32.70;69.70;;;;;;5019538;28;20430;-86
2023/04/23 10:41:00;;;;;;;2.10;1.30;;;32.20;68.30;;;;;;5026825;28;20441;-85
2023/04/23 10:43:25;;;;;;;3.40;1.13;;;31.70;67.40;;;;;;5020789;28;21014;-86
2023/04/23 10:45:52;;;;;;;2.73;1.13;;;31.10;66.50;;;;;;5029904;28;20517;-86
2023/04/23 10:48:19;;;;;;;6.83;1.47;;;30.40;63.40;;;;;;5026445;28;20605;-85
2023/04/23 10:50:46;;;;;;;2.43;1.20;;;29.80;63.00;;;;;;5006878;28;20524;-86
2023/04/23 10:53:22;;;;;;;5.30;1.77;;;29.40;63.00;;;;;;5014791;28;20477;-86
2023/04/23 10:55:47;;;;;;;3.00;1.20;;;29.20;64.30;;;;;;5024521;28;20444;-86
2023/04/23 10:58:13;;;;;;;5.20;1.30;;;28.90;64.20;;;;;;5007836;28;21028;-85
2023/04/23 11:00:42;;;;;;;6.30;2.40;;;28.40;63.30;;;;;;5026554;28;20766;-87
2023/04/23 11:03:40;;;;;;;2.60;1.27;;;27.90;62.20;;;;;;5021824;28;20305;-85
2023/04/23 11:06:06;;;;;;;3.77;1.47;;;27.50;62.50;;;;;;5023785;28;20464;-87
2023/04/23 11:08:36;;;;;;;2.63;1.30;;;27.00;61.50;;;;;;5009671;28;20541;-87
2023/04/23 11:11:06;;;;;;;3.60;1.50;;;26.60;62.10;;;;;;5000960;28;20433;-87
2023/04/23 11:13:32;;;;;;;2.13;1.10;;;26.40;62.60;;;;;;5025964;28;20484;-87
2023/04/23 11:16:20;;;;;;;3.20;1.50;;;26.10;63.50;;;;;;5005625;28;20445;-87
2023/04/23 11:19:06;;;;;;;4.20;1.50;;;26.00;65.00;;;;;;5008363;28;20269;-87
2023/04/23 11:21:55;;;;;;;3.93;1.50;;;25.90;67.20;;;;;;5028366;28;20447;-87
2023/04/23 11:24:25;;;;;;;5.07;1.83;;;25.80;67.90;;;;;;5022248;28;20559;-87
2023/04/23 11:26:53;;;;;;;4.27;1.40;;;25.70;69.40;;;;;;5023677;28;20892;-87
2023/04/23 11:29:24;;;;;;;2.40;1.60;;;25.70;71.30;;;;;;5008925;28;20447;-87
2023/04/23 11:31:54;;;;;;;2.97;1.30;;;25.70;70.20;;;;;;5010467;28;20440;-86
2023/04/23 11:34:20;;;;;;;3.40;1.33;;;25.70;72.20;;;;;;5021339;28;20498;-84
2023/04/23 11:36:48;;;;;;;3.10;1.30;;;25.60;73.30;;;;;;5026908;28;20449;-85
2023/04/23 11:39:13;;;;;;;6.97;1.70;;;25.60;73.60;;;;;;5032714;28;20436;-85
2023/04/23 11:41:39;;;;;;;4.80;1.50;;;25.50;74.70;;;;;;5014124;28;20436;-84
2023/04/23 11:44:05;;;;;;;4.10;1.30;;;25.40;91.60;;;;;;5038532;28;20221;-85
2023/04/23 11:46:31;;;;;;;6.03;1.50;;;25.30;75.60;;;;;;5033825;28;20227;-85
2023/04/23 11:48:58;;;;;;;6.30;1.30;;;25.30;76.40;;;;;;5028725;28;20451;-86
2023/04/23 11:51:27;;;;;;;3.80;1.40;;;25.30;78.00;;;;;;5027687;28;20596;-86
2023/04/23 11:53:53;;;;;;;3.00;1.47;;;25.50;80.90;;;;;;5025756;28;21493;-85
2023/04/23 11:56:19;;;;;;;5.00;1.80;;;25.80;82.70;;;;;;5028231;28;20445;-85
2023/04/23 11:59:02;;;;;;;5.10;1.30;;;26.10;84.30;;;;;;5014385;28;20178;-86
2023/04/23 12:01:41;;;;;;;7.43;1.60;;;26.90;89.60;;;;;;5034014;28;20428;-86
2023/04/23 12:04:24;;;;;;;3.57;1.17;;;28.10;92.60;;;;;;5028639;28;20460;-86
2023/04/23 12:06:51;;;;;;;4.27;1.50;;;29.30;94.70;;;;;;5030990;28;20774;-87
2023/04/23 12:09:18;;;;;;;3.77;1.30;;;30.00;95.10;;;;;;5030733;28;20964;-87
2023/04/23 12:11:44;;;;;;;2.17;1.03;;;30.40;95.60;;;;;;5012633;28;20421;-86
2023/04/23 12:14:13;;;;;;;4.30;1.10;;;30.70;96.00;;;;;;5023479;28;20465;-86
2023/04/23 12:16:41;;;;;;;6.10;1.77;;;30.70;95.40;;;;;;5029345;28;20439;-86
2023/04/23 12:19:08;;;;;;;2.20;1.20;;;30.70;94.50;;;;;;5030660;28;20487;-86
2023/04/23 12:21:45;;;;;;;4.70;1.33;;;30.10;92.60;;;;;;5022303;28;20440;-86
2023/04/23 12:24:11;;;;;;;2.57;1.27;;;30.00;91.90;;;;;;5025757;28;20957;-86
2023/04/23 12:26:36;;;;;;;2.70;1.10;;;30.20;92.80;;;;;;5033245;28;20451;-86
2023/04/23 12:29:02;;;;;;;2.97;1.00;;;30.40;92.70;;;;;;5035131;28;20193;-86
2023/04/23 12:31:28;;;;;;;3.50;1.20;;;30.90;93.40;;;;;;5033624;28;20182;-87
2023/04/23 12:34:07;;;;;;;2.87;1.23;;;31.30;92.80;;;;;;5031199;28;20222;-86
2023/04/23 12:36:36;;;;;;;2.47;1.07;;;31.20;92.00;;;;;;5015164;28;20528;-86
2023/04/23 12:39:20;;;;;;;3.70;1.10;;;31.00;90.80;;;;;;5034043;28;20429;-86
2023/04/23 12:41:47;;;;;;;6.00;1.17;;;30.60;88.20;;;;;;5034046;28;20420;-86
2023/04/23 12:44:13;;;;;;;5.33;1.20;;;29.90;84.50;;;;;;5033904;28;20440;-86